createdAt,value
2019-02-20T00:00:49.466Z,0.00
2019-02-20T00:01:49.441Z,0.00
2019-02-20T00:02:49.422Z,0.00
2019-02-20T00:03:49.425Z,0.00
2019-02-20T00:04:49.431Z,0.00
2019-02-20T00:05:49.391Z,0.00
2019-02-20T00:06:49.409Z,0.00
2019-02-20T00:07:49.392Z,0.00
2019-02-20T00:08:49.367Z,0.00
2019-02-20T00:09:49.367Z,0.00
2019-02-20T00:10:49.354Z,0.00
2019-02-20T00:11:49.415Z,0.00
2019-02-20T00:12:49.340Z,0.00
2019-02-20T00:13:49.346Z,0.00
2019-02-20T00:14:49.342Z,0.00
2019-02-20T00:15:49.336Z,0.00
2019-02-20T00:16:49.314Z,0.00
2019-02-20T00:17:49.293Z,0.00
2019-02-20T00:18:49.303Z,0.00
2019-02-20T00:19:49.319Z,0.00
2019-02-20T00:20:49.285Z,0.00
2019-02-20T00:21:49.287Z,0.00
2019-02-20T00:22:49.281Z,0.00
2019-02-20T00:23:49.311Z,0.00
2019-02-20T00:24:49.248Z,0.00
2019-02-20T00:25:49.247Z,0.00
2019-02-20T00:26:52.835Z,0.00
2019-02-20T00:27:49.274Z,0.00
2019-02-20T00:28:57.241Z,0.00
2019-02-20T00:30:43.672Z,0.00
2019-02-20T00:31:43.122Z,0.00
2019-02-20T00:33:38.428Z,0.00
2019-02-20T00:34:37.939Z,0.00
2019-02-20T00:35:36.945Z,0.00
2019-02-20T00:36:37.476Z,0.00
2019-02-20T00:37:37.467Z,0.00
2019-02-20T00:38:37.958Z,0.00
2019-02-20T00:39:36.848Z,0.00
2019-02-20T00:40:36.907Z,0.00
2019-02-20T00:41:36.856Z,0.00
2019-02-20T00:42:37.341Z,0.00
2019-02-20T00:43:37.314Z,0.00
2019-02-20T00:44:36.690Z,0.00
2019-02-20T00:45:36.516Z,0.00
2019-02-20T00:46:37.217Z,0.00
2019-02-20T00:47:37.254Z,0.00
2019-02-20T00:48:36.580Z,0.00
2019-02-20T00:49:36.533Z,0.00
2019-02-20T00:50:36.499Z,0.00
2019-02-20T00:51:36.685Z,0.00
2019-02-20T00:52:39.256Z,0.00
2019-02-20T00:53:37.179Z,0.00
2019-02-20T00:54:36.760Z,0.00
2019-02-20T00:55:36.689Z,0.00
2019-02-20T00:57:59.105Z,0.00
2019-02-20T00:59:22.301Z,0.00
2019-02-20T00:59:45.799Z,0.00
2019-02-20T01:02:21.986Z,0.00
2019-02-20T01:03:09.648Z,0.00
2019-02-20T01:10:07.059Z,0.00
2019-02-20T01:10:39.573Z,0.00
2019-02-20T01:13:39.171Z,0.00
2019-02-20T01:14:47.666Z,0.00
2019-02-20T01:30:31.750Z,0.00
2019-02-20T01:33:57.903Z,0.00
2019-02-20T01:34:27.452Z,0.00
2019-02-20T01:36:57.774Z,0.00
2019-02-20T01:37:21.700Z,0.00
2019-02-20T01:38:22.216Z,0.00
2019-02-20T01:39:21.691Z,0.00
2019-02-20T01:40:21.689Z,0.00
2019-02-20T01:41:22.212Z,0.00
2019-02-20T01:42:21.614Z,0.00
2019-02-20T01:46:49.521Z,0.00
2019-02-20T01:47:37.127Z,0.00
2019-02-20T01:49:03.045Z,0.00
2019-02-20T01:49:38.598Z,0.00
2019-02-20T01:50:39.507Z,0.00
2019-02-20T01:51:40.430Z,0.00
2019-02-20T01:52:39.445Z,0.00
2019-02-20T01:53:38.621Z,0.00
2019-02-20T01:54:40.420Z,0.00
2019-02-20T01:55:45.059Z,0.00
2019-02-20T02:00:58.004Z,0.00
2019-02-20T02:01:56.428Z,0.00
2019-02-20T02:03:58.550Z,0.00
2019-02-20T02:04:50.033Z,0.00
2019-02-20T02:06:49.867Z,0.00
2019-02-20T02:07:46.335Z,0.00
2019-02-20T02:09:42.259Z,0.00
2019-02-20T02:10:42.257Z,0.00
2019-02-20T02:11:42.785Z,0.00
2019-02-20T02:12:41.714Z,0.00
2019-02-20T02:13:42.219Z,0.00
2019-02-20T02:14:42.160Z,0.00
2019-02-20T02:15:41.203Z,0.00
2019-02-20T02:16:43.347Z,0.00
2019-02-20T02:18:12.767Z,0.00
2019-02-20T02:18:41.199Z,0.00
2019-02-20T02:19:41.142Z,0.00
2019-02-20T02:20:41.617Z,0.00
2019-02-20T02:21:41.606Z,0.00
2019-02-20T02:22:42.670Z,0.00
2019-02-20T02:23:42.780Z,0.00
2019-02-20T02:24:42.140Z,0.00
2019-02-20T02:25:41.638Z,0.00
2019-02-20T02:26:42.634Z,0.00
2019-02-20T02:27:41.066Z,0.00
2019-02-20T02:30:06.248Z,0.00
2019-02-20T02:32:28.125Z,0.00
2019-02-20T02:33:28.068Z,0.00
2019-02-20T02:34:28.565Z,0.00
2019-02-20T02:35:29.132Z,0.00
2019-02-20T02:37:50.341Z,0.00
2019-02-20T02:39:02.644Z,0.00
2019-02-20T02:41:57.277Z,0.00
2019-02-20T02:42:44.736Z,0.00
2019-02-20T02:43:30.796Z,0.00
2019-02-20T02:47:46.846Z,0.00
2019-02-20T02:48:46.660Z,0.00
2019-02-20T02:53:15.097Z,0.00
2019-02-20T02:53:58.625Z,0.00
2019-02-20T02:54:58.515Z,0.00
2019-02-20T02:56:13.166Z,0.00
2019-02-20T02:57:55.990Z,0.00
2019-02-20T02:58:52.959Z,0.00
2019-02-20T03:01:23.488Z,0.00
2019-02-20T03:01:53.755Z,0.00
2019-02-20T03:03:46.532Z,0.00
2019-02-20T03:04:42.998Z,0.00
2019-02-20T03:05:42.982Z,0.00
2019-02-20T03:06:42.493Z,0.00
2019-02-20T03:07:41.613Z,0.00
2019-02-20T03:08:43.193Z,0.00
2019-02-20T03:09:41.581Z,0.00
2019-02-20T03:10:42.447Z,0.00
2019-02-20T03:11:41.498Z,0.00
2019-02-20T03:12:41.539Z,0.00
2019-02-20T03:13:44.071Z,0.00
2019-02-20T03:14:41.395Z,0.00
2019-02-20T03:15:41.178Z,0.00
2019-02-20T03:16:41.088Z,0.00
2019-02-20T03:19:40.094Z,0.00
2019-02-20T03:21:06.050Z,0.00
2019-02-20T06:19:35.113Z,0.00
2019-02-20T06:20:34.824Z,0.00
2019-02-20T06:22:28.200Z,0.00
2019-02-20T06:23:28.133Z,0.00
2019-02-20T06:25:21.293Z,0.00
2019-02-20T06:26:20.971Z,0.00
2019-02-20T06:28:14.607Z,0.00
2019-02-20T06:29:14.301Z,0.00
2019-02-20T06:31:07.238Z,0.00
2019-02-20T06:32:07.173Z,0.00
2019-02-20T06:34:00.270Z,0.00
2019-02-20T06:35:00.004Z,0.00
2019-02-20T06:36:53.566Z,0.00
2019-02-20T06:37:53.327Z,0.00
2019-02-20T06:39:46.763Z,0.00
2019-02-20T06:40:46.667Z,0.00
2019-02-20T06:42:40.273Z,0.00
2019-02-20T06:43:39.991Z,0.00
2019-02-20T06:45:33.561Z,0.00
2019-02-20T06:46:33.372Z,0.00
2019-02-20T06:48:26.568Z,5.63
2019-02-20T06:49:26.473Z,5.63
2019-02-20T06:51:19.462Z,5.63
2019-02-20T06:52:19.405Z,5.63
2019-02-20T06:54:13.255Z,5.63
2019-02-20T06:55:12.689Z,5.63
2019-02-20T06:57:05.775Z,5.63
2019-02-20T06:58:05.736Z,11.25
2019-02-20T06:59:59.218Z,11.25
2019-02-20T07:00:59.113Z,11.25
2019-02-20T07:02:51.952Z,11.25
2019-02-20T07:03:51.652Z,11.25
2019-02-20T07:05:45.319Z,16.88
2019-02-20T07:06:45.273Z,16.88
2019-02-20T07:08:38.466Z,16.88
2019-02-20T07:09:38.349Z,16.88
2019-02-20T07:11:31.486Z,22.50
2019-02-20T07:12:32.000Z,22.50
2019-02-20T07:14:24.248Z,16.88
2019-02-20T07:15:24.016Z,16.88
2019-02-20T07:17:17.508Z,16.88
2019-02-20T07:18:17.411Z,16.88
2019-02-20T07:20:10.270Z,16.88
2019-02-20T07:21:10.251Z,16.88
2019-02-20T07:23:03.148Z,22.50
2019-02-20T07:24:03.090Z,22.50
2019-02-20T07:25:56.701Z,28.13
2019-02-20T07:26:56.754Z,28.13
2019-02-20T07:28:50.297Z,33.75
2019-02-20T07:29:50.275Z,33.75
2019-02-20T07:31:44.641Z,39.38
2019-02-20T07:32:45.070Z,39.38
2019-02-20T07:34:37.034Z,39.38
2019-02-20T07:35:37.987Z,39.38
2019-02-20T07:37:31.364Z,45.00
2019-02-20T07:38:31.339Z,45.00
2019-02-20T07:40:24.241Z,50.63
2019-02-20T07:41:23.657Z,50.63
2019-02-20T07:43:18.132Z,50.63
2019-02-20T07:44:17.052Z,56.25
2019-02-20T07:46:11.420Z,56.25
2019-02-20T07:47:11.346Z,61.88
2019-02-20T07:49:04.001Z,61.88
2019-02-20T07:50:03.972Z,67.50
2019-02-20T07:51:56.357Z,67.50
2019-02-20T07:52:56.214Z,67.50
2019-02-20T07:54:49.734Z,73.13
2019-02-20T07:55:50.650Z,73.13
2019-02-20T07:57:42.873Z,84.38
2019-02-20T07:58:43.059Z,90.00
2019-02-20T08:00:36.468Z,101.25
2019-02-20T08:01:36.411Z,106.88
2019-02-20T08:03:29.812Z,118.13
2019-02-20T08:04:30.183Z,123.75
2019-02-20T08:06:22.556Z,140.63
2019-02-20T08:07:22.577Z,151.88
2019-02-20T08:09:15.449Z,168.75
2019-02-20T08:10:15.420Z,174.38
2019-02-20T08:12:07.942Z,185.63
2019-02-20T08:13:09.453Z,191.25
2019-02-20T08:15:01.630Z,219.38
2019-02-20T08:16:01.222Z,196.88
2019-02-20T08:17:54.848Z,180.00
2019-02-20T08:18:54.530Z,174.38
2019-02-20T08:20:48.060Z,163.13
2019-02-20T08:21:53.091Z,157.50
2019-02-20T08:22:47.942Z,157.50
2019-02-20T08:24:41.431Z,157.50
2019-02-20T08:25:41.531Z,151.88
2019-02-20T08:27:34.612Z,146.25
2019-02-20T08:28:34.144Z,146.25
2019-02-20T08:30:52.605Z,151.88
2019-02-20T08:31:53.918Z,168.75
2019-02-20T08:33:45.950Z,157.50
2019-02-20T08:34:45.790Z,163.13
2019-02-20T08:35:45.951Z,157.50
2019-02-20T08:36:45.822Z,157.50
2019-02-20T08:37:45.943Z,163.13
2019-02-20T08:38:45.800Z,174.38
2019-02-20T08:39:45.758Z,191.25
2019-02-20T08:40:46.395Z,196.88
2019-02-20T08:41:45.849Z,208.13
2019-02-20T08:42:45.751Z,241.88
2019-02-20T08:43:45.827Z,281.25
2019-02-20T08:44:45.837Z,326.25
2019-02-20T08:45:47.287Z,326.25
2019-02-20T08:46:45.733Z,309.38
2019-02-20T08:48:39.233Z,315.00
2019-02-20T08:49:39.143Z,337.50
2019-02-20T08:51:32.590Z,388.13
2019-02-20T08:52:32.579Z,405.00
2019-02-20T08:54:26.062Z,433.13
2019-02-20T08:55:31.770Z,466.88
2019-02-20T08:57:18.984Z,489.38
2019-02-20T08:58:18.907Z,495.00
2019-02-20T09:00:11.722Z,540.00
2019-02-20T09:01:11.665Z,551.25
2019-02-20T09:03:15.585Z,517.50
2019-02-20T09:04:05.090Z,438.75
2019-02-20T09:05:58.460Z,461.25
2019-02-20T09:06:58.133Z,427.50
2019-02-20T09:08:51.362Z,388.13
2019-02-20T09:09:51.007Z,393.75
2019-02-20T09:11:45.622Z,438.75
2019-02-20T09:12:43.906Z,343.13
2019-02-20T09:14:37.078Z,427.50
2019-02-20T09:15:36.807Z,416.25
2019-02-20T09:17:30.010Z,427.50
2019-02-20T09:18:29.827Z,376.88
2019-02-20T09:19:29.664Z,365.63
2019-02-20T09:20:29.956Z,421.88
2019-02-20T09:21:29.661Z,405.00
2019-02-20T09:22:29.614Z,427.50
2019-02-20T09:23:29.613Z,371.25
2019-02-20T09:24:29.635Z,444.38
2019-02-20T09:25:29.611Z,483.75
2019-02-20T09:26:29.637Z,416.25
2019-02-20T09:27:29.615Z,376.88
2019-02-20T09:28:29.610Z,382.50
2019-02-20T09:29:29.606Z,393.75
2019-02-20T09:30:29.980Z,399.38
2019-02-20T09:31:29.605Z,405.00
2019-02-20T09:32:29.607Z,382.50
2019-02-20T09:33:29.622Z,360.00
2019-02-20T09:34:29.603Z,343.13
2019-02-20T09:35:29.673Z,376.88
2019-02-20T09:36:29.600Z,365.63
2019-02-20T09:37:29.975Z,348.75
2019-02-20T09:38:29.603Z,309.38
2019-02-20T09:39:29.601Z,275.63
2019-02-20T09:40:29.608Z,270.00
2019-02-20T09:41:29.598Z,275.63
2019-02-20T09:42:29.602Z,281.25
2019-02-20T09:43:29.597Z,303.75
2019-02-20T09:44:29.597Z,275.63
2019-02-20T09:45:29.600Z,270.00
2019-02-20T09:46:29.595Z,298.13
2019-02-20T09:47:29.593Z,343.13
2019-02-20T09:48:29.591Z,388.13
2019-02-20T09:49:29.600Z,461.25
2019-02-20T09:50:29.588Z,624.38
2019-02-20T09:51:29.586Z,646.88
2019-02-20T09:52:29.588Z,455.63
2019-02-20T09:53:29.599Z,489.38
2019-02-20T09:54:29.584Z,568.13
2019-02-20T09:55:29.584Z,483.75
2019-02-20T09:56:29.581Z,832.50
2019-02-20T09:57:29.590Z,855.00
2019-02-20T09:58:29.581Z,787.50
2019-02-20T09:59:29.580Z,871.88
2019-02-20T10:00:29.584Z,883.13
2019-02-20T10:01:29.577Z,995.63
2019-02-20T10:02:29.574Z,1051.88
2019-02-20T10:03:29.685Z,990.00
2019-02-20T10:04:29.577Z,1018.13
2019-02-20T10:05:29.579Z,1018.13
2019-02-20T10:06:29.583Z,933.75
2019-02-20T10:07:29.576Z,849.38
2019-02-20T10:08:29.579Z,838.13
2019-02-20T10:09:29.581Z,843.75
2019-02-20T10:10:29.577Z,810.00
2019-02-20T10:11:29.586Z,855.00
2019-02-20T10:12:29.579Z,877.50
2019-02-20T10:13:29.598Z,821.25
2019-02-20T10:14:29.580Z,804.38
2019-02-20T10:15:29.595Z,787.50
2019-02-20T10:16:29.584Z,838.13
2019-02-20T10:17:29.585Z,916.88
2019-02-20T10:18:29.602Z,922.50
2019-02-20T10:19:29.586Z,928.13
2019-02-20T10:20:29.583Z,978.75
2019-02-20T10:21:29.582Z,950.63
2019-02-20T10:22:31.196Z,961.88
2019-02-20T10:23:29.586Z,1186.88
2019-02-20T10:24:29.591Z,731.25
2019-02-20T10:25:29.592Z,708.75
2019-02-20T10:26:29.589Z,573.75
2019-02-20T10:27:29.592Z,500.63
2019-02-20T10:28:29.596Z,450.00
2019-02-20T10:29:29.592Z,433.13
2019-02-20T10:30:29.594Z,450.00
2019-02-20T10:31:29.593Z,669.38
2019-02-20T10:32:29.592Z,770.63
2019-02-20T10:33:29.670Z,708.75
2019-02-20T10:34:29.605Z,669.38
2019-02-20T10:35:29.600Z,832.50
2019-02-20T10:36:29.596Z,691.88
2019-02-20T10:37:29.607Z,725.63
2019-02-20T10:38:29.598Z,568.13
2019-02-20T10:39:29.603Z,472.50
2019-02-20T10:40:29.614Z,421.88
2019-02-20T10:41:29.600Z,382.50
2019-02-20T10:42:29.602Z,343.13
2019-02-20T10:43:29.603Z,315.00
2019-02-20T10:44:29.606Z,309.38
2019-02-20T10:45:29.603Z,286.88
2019-02-20T10:46:29.605Z,258.75
2019-02-20T10:47:29.605Z,241.88
2019-02-20T10:48:29.604Z,219.38
2019-02-20T10:49:29.603Z,213.75
2019-02-20T10:50:29.605Z,230.63
2019-02-20T10:51:29.606Z,241.88
2019-02-20T10:52:29.636Z,247.50
2019-02-20T10:53:29.599Z,247.50
2019-02-20T10:54:29.621Z,258.75
2019-02-20T10:55:29.602Z,258.75
2019-02-20T10:56:29.610Z,247.50
2019-02-20T10:57:29.602Z,241.88
2019-02-20T10:58:29.602Z,236.25
2019-02-20T10:59:29.606Z,219.38
2019-02-20T11:00:29.600Z,208.13
2019-02-20T11:01:29.599Z,191.25
2019-02-20T11:02:29.598Z,180.00
2019-02-20T11:03:29.612Z,168.75
2019-02-20T11:04:30.846Z,163.13
2019-02-20T11:05:29.595Z,163.13
2019-02-20T11:06:29.598Z,157.50
2019-02-20T11:07:29.627Z,163.13
2019-02-20T11:08:30.456Z,163.13
2019-02-20T11:09:29.590Z,163.13
2019-02-20T11:10:29.597Z,168.75
2019-02-20T11:11:29.590Z,174.38
2019-02-20T11:12:29.590Z,185.63
2019-02-20T11:13:29.586Z,191.25
2019-02-20T11:14:29.585Z,202.50
2019-02-20T11:15:29.604Z,208.13
2019-02-20T11:16:29.585Z,213.75
2019-02-20T11:17:29.581Z,213.75
2019-02-20T11:18:29.579Z,208.13
2019-02-20T11:19:29.579Z,208.13
2019-02-20T11:20:29.588Z,180.00
2019-02-20T11:21:29.575Z,180.00
2019-02-20T11:22:29.574Z,185.63
2019-02-20T11:23:29.572Z,180.00
2019-02-20T11:24:29.597Z,168.75
2019-02-20T11:25:31.254Z,163.13
2019-02-20T11:26:29.569Z,168.75
2019-02-20T11:27:29.567Z,174.38
2019-02-20T11:28:29.564Z,168.75
2019-02-20T11:29:29.560Z,168.75
2019-02-20T11:30:29.560Z,168.75
2019-02-20T11:31:29.558Z,174.38
2019-02-20T11:32:29.618Z,180.00
2019-02-20T11:33:29.554Z,180.00
2019-02-20T11:34:29.552Z,174.38
2019-02-20T11:35:29.552Z,168.75
2019-02-20T11:36:29.549Z,174.38
2019-02-20T11:37:29.548Z,174.38
2019-02-20T11:38:30.892Z,174.38
2019-02-20T11:39:37.287Z,168.75
2019-02-20T11:40:29.626Z,174.38
2019-02-20T11:41:29.543Z,163.13
2019-02-20T11:42:29.594Z,163.13
2019-02-20T11:43:29.541Z,163.13
2019-02-20T11:44:29.535Z,157.50
2019-02-20T11:45:29.531Z,151.88
2019-02-20T11:46:29.541Z,146.25
2019-02-20T11:47:29.528Z,146.25
2019-02-20T11:48:29.533Z,146.25
2019-02-20T11:49:29.524Z,146.25
2019-02-20T11:50:29.524Z,140.63
2019-02-20T11:51:29.534Z,151.88
2019-02-20T11:52:37.933Z,157.50
2019-02-20T11:53:36.994Z,163.13
2019-02-20T11:54:29.513Z,163.13
2019-02-20T11:55:29.530Z,163.13
2019-02-20T11:56:29.513Z,157.50
2019-02-20T11:57:29.541Z,151.88
2019-02-20T11:58:29.510Z,140.63
2019-02-20T11:59:29.507Z,140.63
2019-02-20T12:00:29.505Z,140.63
2019-02-20T12:01:29.501Z,140.63
2019-02-20T12:02:37.219Z,140.63
2019-02-20T12:03:29.496Z,163.13
2019-02-20T12:04:29.500Z,185.63
2019-02-20T12:05:29.495Z,174.38
2019-02-20T12:06:29.492Z,180.00
2019-02-20T12:07:29.502Z,191.25
2019-02-20T12:08:29.493Z,180.00
2019-02-20T12:09:29.489Z,174.38
2019-02-20T12:10:29.488Z,174.38
2019-02-20T12:11:29.483Z,168.75
2019-02-20T12:12:29.483Z,168.75
2019-02-20T12:13:29.477Z,157.50
2019-02-20T12:14:29.478Z,151.88
2019-02-20T12:15:29.513Z,146.25
2019-02-20T12:16:29.475Z,140.63
2019-02-20T12:17:29.472Z,129.38
2019-02-20T12:18:29.493Z,123.75
2019-02-20T12:19:29.498Z,123.75
2019-02-20T12:20:29.468Z,118.13
2019-02-20T12:21:29.465Z,123.75
2019-02-20T12:22:29.468Z,129.38
2019-02-20T12:23:36.512Z,123.75
2019-02-20T12:24:29.461Z,123.75
2019-02-20T12:25:29.457Z,123.75
2019-02-20T12:26:34.910Z,118.13
2019-02-20T12:27:29.453Z,118.13
2019-02-20T12:28:29.451Z,118.13
2019-02-20T12:29:30.143Z,118.13
2019-02-20T12:30:29.445Z,123.75
2019-02-20T12:31:29.449Z,123.75
2019-02-20T12:32:30.912Z,123.75
2019-02-20T12:33:29.442Z,129.38
2019-02-20T12:34:29.442Z,123.75
2019-02-20T12:35:29.439Z,123.75
2019-02-20T12:36:29.435Z,112.50
2019-02-20T12:37:29.475Z,112.50
2019-02-20T12:38:29.453Z,112.50
2019-02-20T12:39:29.477Z,112.50
2019-02-20T12:40:30.321Z,112.50
2019-02-20T12:41:30.318Z,118.13
2019-02-20T12:42:29.428Z,118.13
2019-02-20T12:43:29.423Z,118.13
2019-02-20T12:44:29.423Z,112.50
2019-02-20T12:45:29.418Z,112.50
2019-02-20T12:46:29.419Z,106.88
2019-02-20T12:47:29.415Z,106.88
2019-02-20T12:48:29.413Z,95.63
2019-02-20T12:49:29.410Z,95.63
2019-02-20T12:50:29.406Z,95.63
2019-02-20T12:51:29.406Z,101.25
2019-02-20T12:52:29.403Z,101.25
2019-02-20T12:53:29.400Z,106.88
2019-02-20T12:54:29.400Z,106.88
2019-02-20T12:55:29.397Z,112.50
2019-02-20T12:56:29.394Z,123.75
2019-02-20T12:57:29.394Z,123.75
2019-02-20T12:58:29.412Z,129.38
2019-02-20T12:59:29.388Z,135.00
2019-02-20T13:00:29.389Z,135.00
2019-02-20T13:01:29.383Z,140.63
2019-02-20T13:02:29.381Z,140.63
2019-02-20T13:03:29.388Z,135.00
2019-02-20T13:04:29.379Z,129.38
2019-02-20T13:05:29.377Z,123.75
2019-02-20T13:06:29.894Z,118.13
2019-02-20T13:07:29.372Z,112.50
2019-02-20T13:08:29.370Z,106.88
2019-02-20T13:09:29.369Z,95.63
2019-02-20T13:10:29.363Z,84.38
2019-02-20T13:11:29.363Z,84.38
2019-02-20T13:12:30.522Z,90.00
2019-02-20T13:13:29.362Z,78.75
2019-02-20T13:14:29.356Z,78.75
2019-02-20T13:15:29.353Z,78.75
2019-02-20T13:16:29.354Z,73.13
2019-02-20T13:17:29.353Z,73.13
2019-02-20T13:18:29.347Z,73.13
2019-02-20T13:19:29.348Z,78.75
2019-02-20T13:20:29.345Z,78.75
2019-02-20T13:21:29.345Z,84.38
2019-02-20T13:22:29.342Z,84.38
2019-02-20T13:23:29.338Z,90.00
2019-02-20T13:24:29.333Z,90.00
2019-02-20T13:25:29.332Z,84.38
2019-02-20T13:26:29.332Z,84.38
2019-02-20T13:27:29.333Z,90.00
2019-02-20T13:28:29.325Z,90.00
2019-02-20T13:29:29.321Z,90.00
2019-02-20T13:30:29.319Z,90.00
2019-02-20T13:31:29.322Z,90.00
2019-02-20T13:32:29.315Z,90.00
2019-02-20T13:33:29.313Z,90.00
2019-02-20T13:34:29.309Z,90.00
2019-02-20T13:35:29.310Z,90.00
2019-02-20T13:36:29.306Z,95.63
2019-02-20T13:37:29.306Z,95.63
2019-02-20T13:38:29.299Z,95.63
2019-02-20T13:39:29.298Z,95.63
2019-02-20T13:40:29.293Z,95.63
2019-02-20T13:41:29.294Z,95.63
2019-02-20T13:42:29.290Z,95.63
2019-02-20T13:43:29.287Z,95.63
2019-02-20T13:44:29.293Z,90.00
2019-02-20T13:45:29.282Z,90.00
2019-02-20T13:46:29.281Z,95.63
2019-02-20T13:47:29.303Z,95.63
2019-02-20T13:48:29.281Z,90.00
2019-02-20T13:49:29.271Z,90.00
2019-02-20T13:50:29.270Z,90.00
2019-02-20T13:51:29.285Z,90.00
2019-02-20T13:52:30.496Z,84.38
2019-02-20T13:53:29.262Z,84.38
2019-02-20T13:54:29.259Z,84.38
2019-02-20T13:55:34.556Z,84.38
2019-02-20T13:56:29.252Z,84.38
2019-02-20T13:57:29.254Z,84.38
2019-02-20T13:58:29.247Z,84.38
2019-02-20T13:59:29.249Z,90.00
2019-02-20T14:00:29.251Z,84.38
2019-02-20T14:01:29.241Z,84.38
2019-02-20T14:02:29.259Z,84.38
2019-02-20T14:03:29.237Z,84.38
2019-02-20T14:04:29.239Z,84.38
2019-02-20T14:05:29.232Z,84.38
2019-02-20T14:06:29.232Z,84.38
2019-02-20T14:07:29.244Z,84.38
2019-02-20T14:08:29.254Z,84.38
2019-02-20T14:09:29.222Z,84.38
2019-02-20T14:10:29.219Z,84.38
2019-02-20T14:11:29.216Z,84.38
2019-02-20T14:12:29.217Z,84.38
2019-02-20T14:13:29.211Z,78.75
2019-02-20T14:14:29.211Z,78.75
2019-02-20T14:15:29.206Z,78.75
2019-02-20T14:16:29.224Z,78.75
2019-02-20T14:17:29.458Z,73.13
2019-02-20T14:18:29.202Z,73.13
2019-02-20T14:19:29.204Z,73.13
2019-02-20T14:20:29.203Z,67.50
2019-02-20T14:21:29.207Z,67.50
2019-02-20T14:22:29.194Z,61.88
2019-02-20T14:23:29.778Z,61.88
2019-02-20T14:24:29.186Z,56.25
2019-02-20T14:25:29.243Z,56.25
2019-02-20T14:26:29.181Z,56.25
2019-02-20T14:27:29.180Z,50.63
2019-02-20T14:28:29.176Z,50.63
2019-02-20T14:29:29.171Z,50.63
2019-02-20T14:30:29.169Z,50.63
2019-02-20T14:31:29.186Z,50.63
2019-02-20T14:32:29.180Z,50.63
2019-02-20T14:33:29.160Z,50.63
2019-02-20T14:34:29.157Z,56.25
2019-02-20T14:35:29.153Z,56.25
2019-02-20T14:36:29.158Z,56.25
2019-02-20T14:37:29.150Z,56.25
2019-02-20T14:38:29.150Z,56.25
2019-02-20T14:39:29.151Z,56.25
2019-02-20T14:40:29.143Z,56.25
2019-02-20T14:41:29.146Z,56.25
2019-02-20T14:42:29.143Z,56.25
2019-02-20T14:43:29.141Z,56.25
2019-02-20T14:44:29.132Z,61.88
2019-02-20T14:45:29.128Z,61.88
2019-02-20T14:46:29.127Z,61.88
2019-02-20T14:47:29.121Z,61.88
2019-02-20T14:48:29.122Z,61.88
2019-02-20T14:49:29.127Z,61.88
2019-02-20T14:50:29.122Z,61.88
2019-02-20T14:51:29.112Z,56.25
2019-02-20T14:52:29.109Z,56.25
2019-02-20T14:53:29.105Z,56.25
2019-02-20T14:54:29.105Z,56.25
2019-02-20T14:55:29.099Z,56.25
2019-02-20T14:56:29.096Z,61.88
2019-02-20T14:57:29.094Z,61.88
2019-02-20T14:58:29.097Z,61.88
2019-02-20T14:59:29.089Z,61.88
2019-02-20T15:00:29.094Z,61.88
2019-02-20T15:01:29.080Z,56.25
2019-02-20T15:02:30.027Z,56.25
2019-02-20T15:03:29.079Z,56.25
2019-02-20T15:04:29.079Z,50.63
2019-02-20T15:05:30.479Z,50.63
2019-02-20T15:06:29.087Z,50.63
2019-02-20T15:07:29.065Z,50.63
2019-02-20T15:08:29.069Z,45.00
2019-02-20T15:09:29.060Z,45.00
2019-02-20T15:10:29.061Z,45.00
2019-02-20T15:11:29.055Z,39.38
2019-02-20T15:12:29.053Z,39.38
2019-02-20T15:13:29.052Z,39.38
2019-02-20T15:14:29.045Z,39.38
2019-02-20T15:15:29.041Z,33.75
2019-02-20T15:16:29.043Z,33.75
2019-02-20T15:17:29.057Z,33.75
2019-02-20T15:18:29.040Z,33.75
2019-02-20T15:19:29.064Z,33.75
2019-02-20T15:20:29.070Z,33.75
2019-02-20T15:21:29.038Z,33.75
2019-02-20T15:22:29.043Z,33.75
2019-02-20T15:23:29.030Z,28.13
2019-02-20T15:24:29.021Z,28.13
2019-02-20T15:25:29.012Z,28.13
2019-02-20T15:26:29.032Z,28.13
2019-02-20T15:27:29.100Z,28.13
2019-02-20T15:28:29.018Z,28.13
2019-02-20T15:29:28.999Z,28.13
2019-02-20T15:30:29.020Z,28.13
2019-02-20T15:31:33.764Z,28.13
2019-02-20T15:32:28.998Z,28.13
2019-02-20T15:33:28.993Z,28.13
2019-02-20T15:34:28.982Z,28.13
2019-02-20T15:35:28.991Z,28.13
2019-02-20T15:36:28.981Z,28.13
2019-02-20T15:37:28.973Z,28.13
2019-02-20T15:38:28.970Z,28.13
2019-02-20T15:39:28.967Z,28.13
2019-02-20T15:40:28.964Z,22.50
2019-02-20T15:41:28.967Z,22.50
2019-02-20T15:42:28.959Z,22.50
2019-02-20T15:43:28.953Z,22.50
2019-02-20T15:44:28.952Z,22.50
2019-02-20T15:45:28.947Z,22.50
2019-02-20T15:46:28.945Z,22.50
2019-02-20T15:47:28.964Z,22.50
2019-02-20T15:48:28.946Z,22.50
2019-02-20T15:49:28.938Z,22.50
2019-02-20T15:50:28.933Z,22.50
2019-02-20T15:51:28.931Z,22.50
2019-02-20T15:52:28.929Z,22.50
2019-02-20T15:53:28.918Z,16.88
2019-02-20T15:54:28.926Z,16.88
2019-02-20T15:55:28.919Z,16.88
2019-02-20T15:56:28.911Z,16.88
2019-02-20T15:57:37.562Z,16.88
2019-02-20T15:58:28.909Z,16.88
2019-02-20T15:59:28.900Z,16.88
2019-02-20T16:00:28.897Z,16.88
2019-02-20T16:01:28.896Z,16.88
2019-02-20T16:02:28.893Z,16.88
2019-02-20T16:03:28.893Z,16.88
2019-02-20T16:04:28.900Z,11.25
2019-02-20T16:05:28.880Z,11.25
2019-02-20T16:06:28.876Z,11.25
2019-02-20T16:07:28.878Z,11.25
2019-02-20T16:08:28.875Z,11.25
2019-02-20T16:09:28.868Z,11.25
2019-02-20T16:10:28.858Z,11.25
2019-02-20T16:11:28.882Z,5.63
2019-02-20T16:12:28.868Z,5.63
2019-02-20T16:13:28.857Z,5.63
2019-02-20T16:14:28.850Z,5.63
2019-02-20T16:15:28.852Z,5.63
2019-02-20T16:16:28.840Z,5.63
2019-02-20T16:17:28.838Z,5.63
2019-02-20T16:18:28.842Z,5.63
2019-02-20T16:19:28.833Z,5.63
2019-02-20T16:20:28.835Z,5.63
2019-02-20T16:21:29.615Z,5.63
2019-02-20T16:22:28.829Z,5.63
2019-02-20T16:23:28.818Z,0.00
2019-02-20T16:24:28.858Z,0.00
2019-02-20T16:25:28.809Z,0.00
2019-02-20T16:26:28.803Z,0.00
2019-02-20T16:27:28.802Z,0.00
2019-02-20T16:28:33.866Z,0.00
2019-02-20T16:29:28.801Z,0.00
2019-02-20T16:30:28.791Z,0.00
2019-02-20T16:31:28.796Z,0.00
2019-02-20T16:32:28.786Z,0.00
2019-02-20T16:33:28.781Z,0.00
2019-02-20T16:34:28.778Z,0.00
2019-02-20T16:35:28.773Z,0.00
2019-02-20T16:36:28.775Z,0.00
2019-02-20T16:37:28.781Z,0.00
2019-02-20T16:38:28.784Z,0.00
2019-02-20T16:39:28.762Z,0.00
2019-02-20T16:40:28.757Z,0.00
2019-02-20T16:41:28.755Z,0.00
2019-02-20T16:42:28.749Z,0.00
2019-02-20T16:43:28.758Z,0.00
2019-02-20T16:44:28.742Z,0.00
2019-02-20T16:45:28.737Z,0.00
2019-02-20T16:46:28.732Z,0.00
2019-02-20T16:47:28.742Z,0.00
2019-02-20T16:48:28.730Z,0.00
2019-02-20T16:49:28.723Z,0.00
2019-02-20T16:50:28.719Z,0.00
2019-02-20T16:51:28.714Z,0.00
2019-02-20T16:52:28.721Z,0.00
2019-02-20T16:53:28.709Z,0.00
2019-02-20T16:54:28.711Z,0.00
2019-02-20T16:55:28.702Z,0.00
2019-02-20T16:56:28.716Z,0.00
2019-02-20T16:57:28.693Z,0.00
2019-02-20T16:58:28.691Z,0.00
2019-02-20T16:59:59.371Z,0.00
2019-02-20T17:00:59.382Z,0.00
2019-02-20T17:02:52.831Z,0.00
2019-02-20T17:03:52.468Z,0.00
2019-02-20T17:05:46.257Z,0.00
2019-02-20T17:06:46.134Z,0.00
2019-02-20T17:08:39.052Z,0.00
2019-02-20T17:09:38.745Z,0.00
2019-02-20T17:11:33.283Z,0.00
2019-02-20T17:12:31.676Z,0.00
2019-02-20T17:14:24.732Z,0.00
2019-02-20T17:15:24.472Z,0.00
2019-02-20T17:17:17.638Z,0.00
2019-02-20T17:18:17.355Z,0.00
2019-02-20T17:20:10.984Z,0.00
2019-02-20T17:21:10.746Z,0.00
2019-02-20T17:23:04.979Z,0.00
2019-02-20T17:24:04.928Z,0.00
2019-02-20T17:25:57.776Z,0.00
2019-02-20T17:26:57.458Z,0.00
2019-02-20T17:28:51.189Z,0.00
2019-02-20T17:29:51.284Z,0.00
2019-02-20T17:31:44.668Z,0.00
2019-02-20T17:32:44.514Z,0.00
2019-02-20T17:34:37.363Z,0.00
2019-02-20T17:35:37.102Z,0.00
2019-02-20T17:37:30.319Z,0.00
2019-02-20T17:38:29.938Z,0.00
2019-02-20T17:40:23.135Z,0.00
2019-02-20T17:41:23.406Z,0.00
2019-02-20T17:43:15.940Z,0.00
2019-02-20T17:44:15.636Z,0.00
2019-02-20T17:46:09.401Z,0.00
2019-02-20T17:47:09.064Z,0.00
2019-02-20T17:49:02.787Z,0.00
2019-02-20T17:50:02.692Z,0.00
2019-02-20T17:51:56.279Z,0.00
2019-02-20T17:52:56.069Z,0.00
2019-02-20T20:49:09.728Z,0.00